createdAt,value
2022-08-03T00:00:52.149Z,2.1
2022-08-03T00:02:00.729Z,1.8
2022-08-03T00:03:09.160Z,1.8
2022-08-03T00:04:17.477Z,1.8
2022-08-03T00:05:26.054Z,2.4
2022-08-03T00:06:37.077Z,2.4
2022-08-03T00:07:42.766Z,2.4
2022-08-03T00:08:51.355Z,1.8
2022-08-03T00:09:59.730Z,1.8
2022-08-03T00:11:08.099Z,1.8
2022-08-03T00:12:16.914Z,1.9
2022-08-03T00:13:25.050Z,1.9
2022-08-03T00:14:33.444Z,1.9
2022-08-03T00:15:42.024Z,1.8
2022-08-03T00:16:50.376Z,1.8
2022-08-03T00:17:58.763Z,1.8
2022-08-03T00:19:07.330Z,1.8
2022-08-03T00:20:15.709Z,1.8
2022-08-03T00:21:24.071Z,1.8
2022-08-03T00:22:32.653Z,1.7
2022-08-03T00:23:51.057Z,1.7
2022-08-03T00:24:49.440Z,1.7
2022-08-03T00:25:58.019Z,1.9
2022-08-03T00:27:06.384Z,1.9
2022-08-03T00:28:14.746Z,1.9
2022-08-03T00:29:23.346Z,1.7
2022-08-03T00:30:31.708Z,1.7
2022-08-03T00:31:52.327Z,1.7
2022-08-03T00:32:48.643Z,1.9
2022-08-03T00:33:57.878Z,1.9
2022-08-03T00:35:08.443Z,1.9
2022-08-03T00:36:13.962Z,1.6
2022-08-03T00:37:22.327Z,1.6
2022-08-03T00:38:30.692Z,1.6
2022-08-03T00:39:39.280Z,1.7
2022-08-03T00:40:47.666Z,1.7
2022-08-03T00:41:56.050Z,1.7
2022-08-03T00:43:04.635Z,1.6
2022-08-03T00:44:13.060Z,1.6
2022-08-03T00:45:21.445Z,1.6
2022-08-03T00:46:30.015Z,1.9
2022-08-03T00:47:38.383Z,1.9
2022-08-03T00:48:46.775Z,1.9
2022-08-03T00:49:55.377Z,1.8
2022-08-03T00:51:03.793Z,1.8
2022-08-03T00:52:12.151Z,1.8
2022-08-03T00:53:20.730Z,2
2022-08-03T00:54:29.129Z,2
2022-08-03T00:55:37.505Z,2
2022-08-03T00:56:59.392Z,1.7
2022-08-03T00:57:54.466Z,1.7
2022-08-03T00:59:02.852Z,1.7
2022-08-03T01:00:11.447Z,1.7
2022-08-03T01:01:19.855Z,1.7
2022-08-03T01:02:28.198Z,1.7
2022-08-03T01:03:36.779Z,1.8
2022-08-03T01:04:45.156Z,1.8
2022-08-03T01:05:53.523Z,1.8
2022-08-03T01:07:02.111Z,1.8
2022-08-03T01:08:10.490Z,1.8
2022-08-03T01:09:18.883Z,1.8
2022-08-03T01:10:27.472Z,2.1
2022-08-03T01:11:35.851Z,2.1
2022-08-03T01:12:44.213Z,2.1
2022-08-03T01:13:59.995Z,1.8
2022-08-03T01:15:01.202Z,1.8
2022-08-03T01:16:09.565Z,1.8
2022-08-03T01:17:18.141Z,1.9
2022-08-03T01:18:26.521Z,1.9
2022-08-03T01:19:34.904Z,1.9
2022-08-03T01:20:43.489Z,1.9
2022-08-03T01:21:51.881Z,1.9
2022-08-03T01:23:00.274Z,1.9
2022-08-03T01:24:08.871Z,1.9
2022-08-03T01:25:17.253Z,1.9
2022-08-03T01:26:25.630Z,1.9
2022-08-03T01:27:34.197Z,1.9
2022-08-03T01:28:42.609Z,1.9
2022-08-03T01:29:51.000Z,1.9
2022-08-03T01:30:59.568Z,2.3
2022-08-03T01:32:52.031Z,2.3
2022-08-03T01:33:16.336Z,2.3
2022-08-03T01:34:24.918Z,2.3
2022-08-03T01:35:33.313Z,2.3
2022-08-03T01:36:41.681Z,2.3
2022-08-03T01:37:50.260Z,2.2
2022-08-03T01:38:58.642Z,2.2
2022-08-03T01:40:07.039Z,2.2
2022-08-03T01:41:15.648Z,2.6
2022-08-03T01:42:24.012Z,2.6
2022-08-03T01:43:55.711Z,2.6
2022-08-03T01:44:40.991Z,3.4
2022-08-03T01:45:49.389Z,3.4
2022-08-03T01:46:57.772Z,3.4
2022-08-03T01:48:06.346Z,3.9
2022-08-03T01:49:14.792Z,3.9
2022-08-03T01:50:23.113Z,3.9
2022-08-03T01:51:57.665Z,4.2
2022-08-03T01:52:40.086Z,4.2
2022-08-03T01:53:48.474Z,4.2
2022-08-03T01:54:57.050Z,4.7
2022-08-03T01:56:05.422Z,4.7
2022-08-03T01:57:13.812Z,4.7
2022-08-03T01:58:22.411Z,5
2022-08-03T01:59:30.813Z,5
2022-08-03T02:00:39.228Z,5
2022-08-03T02:02:15.813Z,5.4
2022-08-03T02:02:56.199Z,5.4
2022-08-03T02:04:04.589Z,5.4
2022-08-03T02:05:13.169Z,4.7
2022-08-03T02:06:58.415Z,4.7
2022-08-03T02:07:29.911Z,4.7
2022-08-03T02:08:38.499Z,4.3
2022-08-03T02:09:46.896Z,4.3
2022-08-03T02:10:55.271Z,4.3
2022-08-03T02:12:03.850Z,4.2
2022-08-03T02:13:12.263Z,4.2
2022-08-03T02:14:20.634Z,4.2
2022-08-03T02:15:29.233Z,4.5
2022-08-03T02:16:37.632Z,4.5
2022-08-03T02:17:46.000Z,4.5
2022-08-03T02:18:54.587Z,4.1
2022-08-03T02:20:02.973Z,4.1
2022-08-03T02:21:11.397Z,4.1
2022-08-03T02:22:19.958Z,3.3
2022-08-03T02:23:28.336Z,3.3
2022-08-03T02:24:36.703Z,3.3
2022-08-03T02:25:45.287Z,3.3
2022-08-03T02:26:53.659Z,3.3
2022-08-03T02:28:02.056Z,3.3
2022-08-03T02:29:10.655Z,3
2022-08-03T02:30:19.040Z,3
2022-08-03T02:31:27.423Z,3
2022-08-03T02:32:36.006Z,2.9
2022-08-03T02:33:44.407Z,2.9
2022-08-03T02:34:52.764Z,2.9
2022-08-03T02:36:01.368Z,2.5
2022-08-03T02:37:09.742Z,2.5
2022-08-03T02:38:18.145Z,2.5
2022-08-03T02:39:26.735Z,2.4
2022-08-03T02:40:35.106Z,2.4
2022-08-03T02:41:43.495Z,2.4
2022-08-03T02:42:52.112Z,2.6
2022-08-03T02:44:05.784Z,2.6
2022-08-03T02:45:08.862Z,2.6
2022-08-03T02:46:17.443Z,2.9
2022-08-03T02:47:25.814Z,2.9
2022-08-03T02:48:34.216Z,2.9
2022-08-03T02:49:50.225Z,2.1
2022-08-03T02:50:51.196Z,2.1
2022-08-03T02:51:59.584Z,2.1
2022-08-03T02:53:08.188Z,2.5
2022-08-03T02:54:16.603Z,2.5
2022-08-03T02:55:24.963Z,2.5
2022-08-03T02:56:33.552Z,2.2
2022-08-03T02:57:41.990Z,2.2
2022-08-03T02:58:50.465Z,2.2
2022-08-03T02:59:59.092Z,2.4
2022-08-03T03:01:07.531Z,2.4
2022-08-03T03:02:16.033Z,2.4
2022-08-03T03:03:24.482Z,2.1
2022-08-03T03:04:33.444Z,2.1
2022-08-03T03:05:51.192Z,2.1
2022-08-03T03:06:50.850Z,2.4
2022-08-03T03:07:59.239Z,2.4
2022-08-03T03:09:07.599Z,2.4
2022-08-03T03:10:16.193Z,2.4
2022-08-03T03:11:24.575Z,2.4
2022-08-03T03:12:33.019Z,2.4
2022-08-03T03:13:41.648Z,2.3
2022-08-03T03:14:50.026Z,2.3
2022-08-03T03:15:58.423Z,2.3
2022-08-03T03:17:07.034Z,2.2
2022-08-03T03:18:18.934Z,2.2
2022-08-03T03:19:23.812Z,2.2
2022-08-03T03:20:32.416Z,2.5
2022-08-03T03:21:40.825Z,2.5
2022-08-03T03:22:49.207Z,2.5
2022-08-03T03:23:57.781Z,2.2
2022-08-03T03:25:06.224Z,2.2
2022-08-03T03:26:14.582Z,2.2
2022-08-03T03:27:23.192Z,2.5
2022-08-03T03:28:31.574Z,2.5
2022-08-03T03:29:39.957Z,2.5
2022-08-03T03:30:52.950Z,2.5
2022-08-03T03:31:56.953Z,2.5
2022-08-03T03:33:05.350Z,2.5
2022-08-03T03:34:13.963Z,2.5
2022-08-03T03:35:22.365Z,2.5
2022-08-03T03:36:30.737Z,2.5
2022-08-03T03:37:39.364Z,2.3
2022-08-03T03:38:47.759Z,2.3
2022-08-03T03:39:56.131Z,2.3
2022-08-03T03:41:04.742Z,2.9
2022-08-03T03:42:13.452Z,2.9
2022-08-03T03:43:21.496Z,2.9
2022-08-03T03:44:30.086Z,2.6
2022-08-03T03:45:38.446Z,2.6
2022-08-03T03:46:46.890Z,2.6
2022-08-03T03:47:55.530Z,2.4
2022-08-03T03:49:03.949Z,2.4
2022-08-03T03:50:12.299Z,2.4
2022-08-03T03:51:20.892Z,2.8
2022-08-03T03:52:29.295Z,2.8
2022-08-03T03:53:37.660Z,2.8
2022-08-03T03:54:46.256Z,2.4
2022-08-03T03:55:59.054Z,2.4
2022-08-03T03:57:03.067Z,2.4
2022-08-03T03:58:11.661Z,2.4
2022-08-03T03:59:20.049Z,2.4
2022-08-03T04:00:28.447Z,2.4
2022-08-03T04:01:37.025Z,2.7
2022-08-03T04:02:45.430Z,2.7
2022-08-03T04:03:53.793Z,2.7
2022-08-03T04:05:02.389Z,2.9
2022-08-03T04:06:10.769Z,2.9
2022-08-03T04:07:19.166Z,2.9
2022-08-03T04:08:27.748Z,3.3
2022-08-03T04:09:36.116Z,3.3
2022-08-03T04:10:44.604Z,3.3
2022-08-03T04:11:53.201Z,3.7
2022-08-03T04:13:01.576Z,3.7
2022-08-03T04:14:09.994Z,3.7
2022-08-03T04:15:18.573Z,3.4
2022-08-03T04:16:26.941Z,3.4
2022-08-03T04:17:35.315Z,3.4
2022-08-03T04:18:43.934Z,3.5
2022-08-03T04:19:52.294Z,3.5
2022-08-03T04:21:00.711Z,3.5
2022-08-03T04:22:09.425Z,4
2022-08-03T04:23:17.692Z,4
2022-08-03T04:24:26.366Z,4
2022-08-03T04:25:34.674Z,3.7
2022-08-03T04:26:43.065Z,3.7
2022-08-03T04:28:07.877Z,3.7
2022-08-03T04:29:00.009Z,4
2022-08-03T04:30:08.438Z,4
2022-08-03T04:31:16.809Z,4
2022-08-03T04:32:25.425Z,4.3
2022-08-03T04:33:34.890Z,4.3
2022-08-03T04:34:42.195Z,4.3
2022-08-03T04:35:58.706Z,4
2022-08-03T04:36:59.168Z,4
2022-08-03T04:38:07.520Z,4
2022-08-03T04:39:16.096Z,4.6
2022-08-03T04:40:24.480Z,4.6
2022-08-03T04:41:32.869Z,4.6
2022-08-03T04:42:41.451Z,4.4
2022-08-03T04:43:49.867Z,4.4
2022-08-03T04:45:01.269Z,4.4
2022-08-03T04:46:06.951Z,4.9
2022-08-03T04:47:15.341Z,4.9
2022-08-03T04:48:23.727Z,4.9
2022-08-03T04:49:32.414Z,4.8
2022-08-03T04:50:40.719Z,4.8
2022-08-03T04:51:49.113Z,4.8
2022-08-03T04:52:57.699Z,5.4
2022-08-03T04:54:06.084Z,5.4
2022-08-03T04:55:14.452Z,5.4
2022-08-03T04:56:23.028Z,5.6
2022-08-03T04:57:31.413Z,5.6
2022-08-03T04:58:39.780Z,5.6
2022-08-03T04:59:48.359Z,6.3
2022-08-03T05:00:56.734Z,6.3
2022-08-03T05:02:05.174Z,6.3
2022-08-03T05:03:19.635Z,6.2
2022-08-03T05:04:22.045Z,6.2
2022-08-03T05:05:34.692Z,6.2
2022-08-03T05:06:41.433Z,6.5
2022-08-03T05:07:47.389Z,6.5
2022-08-03T05:08:55.737Z,6.5
2022-08-03T05:10:04.354Z,6
2022-08-03T05:11:12.736Z,6
2022-08-03T05:12:21.156Z,6
2022-08-03T05:13:29.739Z,6
2022-08-03T05:14:38.098Z,6
2022-08-03T05:15:46.475Z,6
2022-08-03T05:16:55.082Z,5.9
2022-08-03T05:18:03.450Z,5.9
2022-08-03T05:19:11.815Z,5.9
2022-08-03T05:20:20.386Z,6
2022-08-03T05:21:41.628Z,6
2022-08-03T05:22:37.127Z,6
2022-08-03T05:23:45.695Z,5.9
2022-08-03T05:24:54.069Z,5.9
2022-08-03T05:26:02.448Z,5.9
2022-08-03T05:27:11.030Z,5.8
2022-08-03T05:28:19.390Z,5.8
2022-08-03T05:29:27.758Z,5.8
2022-08-03T05:30:36.340Z,5.9
2022-08-03T05:31:44.735Z,5.9
2022-08-03T05:32:53.125Z,5.9
2022-08-03T05:34:01.711Z,5.7
2022-08-03T05:35:55.447Z,5.7
2022-08-03T05:36:18.464Z,5.7
2022-08-03T05:37:27.056Z,5.8
2022-08-03T05:38:35.623Z,5.8
2022-08-03T05:39:43.818Z,5.8
2022-08-03T05:40:56.709Z,5.6
2022-08-03T05:42:00.790Z,5.6
2022-08-03T05:43:09.150Z,5.6
2022-08-03T05:44:17.724Z,4.6
2022-08-03T05:45:28.334Z,4.6
2022-08-03T05:46:34.454Z,4.6
2022-08-03T05:47:43.023Z,4.2
2022-08-03T05:48:51.391Z,4.2
2022-08-03T05:49:59.749Z,4.2
2022-08-03T05:51:08.336Z,4.1
2022-08-03T05:52:16.740Z,4.1
2022-08-03T05:53:25.099Z,4.1
2022-08-03T05:54:55.262Z,3.7
2022-08-03T05:55:42.064Z,3.7
2022-08-03T05:56:50.488Z,3.7
2022-08-03T05:57:59.061Z,3.2
2022-08-03T05:59:35.619Z,3.2
2022-08-03T06:00:15.810Z,3.2
2022-08-03T06:01:24.417Z,3
2022-08-03T06:02:32.744Z,3
2022-08-03T06:03:41.102Z,3
2022-08-03T06:04:49.681Z,3.4
2022-08-03T06:06:00.169Z,3.4
2022-08-03T06:07:06.438Z,3.4
2022-08-03T06:08:15.420Z,3.3
2022-08-03T06:09:23.364Z,3.3
2022-08-03T06:10:34.827Z,3.3
2022-08-03T06:11:40.329Z,3.1
2022-08-03T06:12:48.707Z,3.1
2022-08-03T06:13:57.107Z,3.1
2022-08-03T06:15:05.719Z,2.9
2022-08-03T06:16:14.079Z,2.9
2022-08-03T06:17:22.459Z,2.9
2022-08-03T06:18:31.043Z,3.1
2022-08-03T06:19:39.399Z,3.1
2022-08-03T06:20:49.326Z,3.1
2022-08-03T06:21:56.363Z,2.7
2022-08-03T06:23:04.739Z,2.7
2022-08-03T06:24:13.094Z,2.7
2022-08-03T06:25:21.685Z,2.9
2022-08-03T06:26:30.069Z,2.9
2022-08-03T06:27:38.436Z,2.9
2022-08-03T06:28:51.295Z,3.3
2022-08-03T06:29:55.390Z,3.3
2022-08-03T06:31:03.765Z,3.3
2022-08-03T06:32:12.347Z,2.9
2022-08-03T06:33:20.703Z,2.9
2022-08-03T06:34:32.037Z,2.9
2022-08-03T06:35:37.655Z,3.8
2022-08-03T06:36:46.015Z,3.8
2022-08-03T06:37:54.400Z,3.8
2022-08-03T06:39:02.974Z,3.3
2022-08-03T06:40:11.324Z,3.3
2022-08-03T06:41:19.707Z,3.3
2022-08-03T06:42:28.294Z,3.4
2022-08-03T06:43:36.655Z,3.4
2022-08-03T06:44:45.022Z,3.4
2022-08-03T06:45:53.611Z,3.9
2022-08-03T06:47:01.975Z,3.9
2022-08-03T06:48:10.364Z,3.9
2022-08-03T06:49:18.990Z,3.9
2022-08-03T06:50:27.355Z,3.9
2022-08-03T06:52:04.755Z,3.9
2022-08-03T06:52:44.276Z,3.6
2022-08-03T06:53:52.652Z,3.6
2022-08-03T06:55:00.994Z,3.6
2022-08-03T06:56:09.584Z,4.1
2022-08-03T06:57:17.957Z,4.1
2022-08-03T06:58:26.324Z,4.1
2022-08-03T07:00:08.785Z,3.4
2022-08-03T07:00:43.271Z,3.4
2022-08-03T07:01:51.735Z,3.4
2022-08-03T07:03:00.287Z,3.8
2022-08-03T07:04:08.630Z,3.8
2022-08-03T07:05:16.995Z,3.8
2022-08-03T07:06:25.593Z,4.3
2022-08-03T07:07:33.949Z,4.3
2022-08-03T07:08:42.308Z,4.3
2022-08-03T07:09:53.214Z,3.7
2022-08-03T07:10:59.270Z,3.7
2022-08-03T07:12:07.653Z,3.7
2022-08-03T07:13:16.233Z,4
2022-08-03T07:14:24.611Z,4
2022-08-03T07:15:54.700Z,4
2022-08-03T07:16:41.609Z,3.8
2022-08-03T07:17:50.068Z,3.8
2022-08-03T07:18:58.451Z,3.8
2022-08-03T07:20:07.026Z,3.3
2022-08-03T07:21:15.422Z,3.3
2022-08-03T07:22:23.813Z,3.3
2022-08-03T07:23:32.395Z,3.1
2022-08-03T07:24:40.773Z,3.1
2022-08-03T07:25:49.144Z,3.1
2022-08-03T07:26:57.712Z,2.8
2022-08-03T07:28:06.088Z,2.8
2022-08-03T07:29:15.105Z,2.8
2022-08-03T07:30:23.113Z,2.9
2022-08-03T07:31:34.323Z,2.9
2022-08-03T07:32:49.814Z,2.9
2022-08-03T07:33:48.393Z,3.1
2022-08-03T07:35:00.461Z,3.1
2022-08-03T07:36:05.143Z,3.1
2022-08-03T07:37:13.723Z,3.1
2022-08-03T07:38:22.086Z,3.1
2022-08-03T07:39:30.471Z,3.1
2022-08-03T07:40:42.068Z,2.7
2022-08-03T07:41:47.463Z,2.7
2022-08-03T07:42:55.832Z,2.7
2022-08-03T07:44:04.410Z,2.8
2022-08-03T07:45:16.820Z,2.8
2022-08-03T07:46:21.179Z,2.8
2022-08-03T07:47:35.153Z,2.8
2022-08-03T07:48:38.177Z,2.8
2022-08-03T07:49:46.548Z,2.8
2022-08-03T07:50:55.134Z,2.7
2022-08-03T07:52:03.493Z,2.7
2022-08-03T07:53:11.871Z,2.7
2022-08-03T07:54:20.448Z,2.6
2022-08-03T07:55:28.819Z,2.6
2022-08-03T07:56:37.189Z,2.6
2022-08-03T07:57:45.763Z,2.6
2022-08-03T07:58:54.133Z,2.6
2022-08-03T08:00:02.867Z,2.6
2022-08-03T08:01:11.160Z,1.9
2022-08-03T08:02:19.479Z,1.9
2022-08-03T08:03:27.847Z,1.9
2022-08-03T08:04:36.421Z,1.9
2022-08-03T08:05:44.799Z,1.9
2022-08-03T08:06:53.175Z,1.9
2022-08-03T08:08:01.754Z,1.4
2022-08-03T08:09:10.120Z,1.4
2022-08-03T08:10:18.518Z,1.4
2022-08-03T08:11:27.095Z,1.4
2022-08-03T08:12:35.469Z,1.4
2022-08-03T08:13:43.843Z,1.4
2022-08-03T08:14:52.447Z,1.7
2022-08-03T08:16:00.789Z,1.7
2022-08-03T08:17:09.162Z,1.7
2022-08-03T08:18:17.737Z,1.5
2022-08-03T08:19:26.133Z,1.5
2022-08-03T08:20:34.949Z,1.5
2022-08-03T08:21:52.849Z,1.6
2022-08-03T08:22:52.321Z,1.6
2022-08-03T08:24:00.705Z,1.6
2022-08-03T08:25:09.282Z,1.6
2022-08-03T08:26:17.729Z,1.6
2022-08-03T08:27:26.121Z,1.6
2022-08-03T08:28:34.688Z,1.9
2022-08-03T08:29:45.896Z,1.9
2022-08-03T08:30:51.480Z,1.9
2022-08-03T08:32:00.072Z,1.6
2022-08-03T08:33:08.656Z,1.6
2022-08-03T08:34:16.827Z,1.6
2022-08-03T08:35:25.416Z,1.6
2022-08-03T08:36:33.798Z,1.6
2022-08-03T08:37:42.170Z,1.6
2022-08-03T08:38:50.738Z,1.7
2022-08-03T08:39:59.135Z,1.7
2022-08-03T08:41:07.516Z,1.7
2022-08-03T08:42:16.300Z,1.8
2022-08-03T08:43:24.449Z,1.8
2022-08-03T08:44:32.837Z,1.8
2022-08-03T08:45:41.578Z,1.6
2022-08-03T08:46:49.938Z,1.6
2022-08-03T08:48:00.971Z,1.6
2022-08-03T08:49:06.937Z,1.7
2022-08-03T08:50:27.076Z,1.7
2022-08-03T08:51:23.642Z,1.7
2022-08-03T08:52:32.343Z,1.5
2022-08-03T08:53:40.601Z,1.5
2022-08-03T08:54:48.985Z,1.5
2022-08-03T08:56:00.180Z,1.7
2022-08-03T08:57:21.213Z,1.7
2022-08-03T08:58:15.204Z,1.7
2022-08-03T08:59:23.768Z,1.5
2022-08-03T09:00:32.166Z,1.5
2022-08-03T09:01:40.549Z,1.5
2022-08-03T09:02:49.170Z,1.8
2022-08-03T09:03:57.545Z,1.8
2022-08-03T09:05:07.578Z,1.8
2022-08-03T09:06:14.517Z,1.7
2022-08-03T09:07:22.886Z,1.7
2022-08-03T09:08:31.249Z,1.7
2022-08-03T09:10:01.285Z,1.4
2022-08-03T09:10:48.252Z,1.4
2022-08-03T09:12:08.987Z,1.4
2022-08-03T09:13:05.186Z,1.6
2022-08-03T09:14:34.112Z,1.6
2022-08-03T09:15:21.950Z,1.6
2022-08-03T09:16:30.523Z,1.7
2022-08-03T09:17:38.896Z,1.7
2022-08-03T09:18:47.248Z,1.7
2022-08-03T09:20:03.402Z,1.5
2022-08-03T09:21:19.096Z,1.5
2022-08-03T09:22:12.593Z,1.5
2022-08-03T09:23:59.344Z,1.6
2022-08-03T09:24:40.989Z,1.6
2022-08-03T09:25:37.919Z,1.6
2022-08-03T09:26:46.502Z,1.6
2022-08-03T09:27:54.882Z,1.6
2022-08-03T09:29:07.065Z,1.6
2022-08-03T09:30:18.979Z,2.1
2022-08-03T09:31:20.238Z,2.1
2022-08-03T09:32:28.611Z,2.1
2022-08-03T09:33:37.171Z,1.6
2022-08-03T09:34:45.560Z,1.6
2022-08-03T09:35:54.946Z,1.6
2022-08-03T09:37:02.518Z,1.8
2022-08-03T09:38:12.842Z,1.8
2022-08-03T09:39:19.278Z,1.8
2022-08-03T09:40:27.904Z,1.7
2022-08-03T09:41:36.260Z,1.7
2022-08-03T09:42:44.641Z,1.7
2022-08-03T09:43:53.223Z,2.3
2022-08-03T09:45:01.630Z,2.3
2022-08-03T09:46:09.985Z,2.3
2022-08-03T09:47:18.692Z,2.3
2022-08-03T09:48:26.948Z,2.3
2022-08-03T09:49:35.401Z,2.3
2022-08-03T09:50:56.931Z,1.7
2022-08-03T09:52:29.548Z,1.7
2022-08-03T09:53:00.669Z,1.7
2022-08-03T09:54:16.431Z,1.8
2022-08-03T09:55:23.463Z,1.8
2022-08-03T09:56:35.356Z,1.8
2022-08-03T09:57:34.584Z,1.5
2022-08-03T09:58:42.973Z,1.5
2022-08-03T09:59:53.874Z,1.5
2022-08-03T10:00:59.974Z,1.5
2022-08-03T10:02:08.326Z,1.5
2022-08-03T10:03:16.690Z,1.5
2022-08-03T10:04:25.298Z,1.4
2022-08-03T10:05:33.687Z,1.4
2022-08-03T10:06:42.067Z,1.4
2022-08-03T10:07:50.668Z,1.5
2022-08-03T10:08:59.053Z,1.5
2022-08-03T10:10:29.308Z,1.5
2022-08-03T10:11:16.024Z,1.5
2022-08-03T10:12:24.407Z,1.5
2022-08-03T10:13:32.771Z,1.5
2022-08-03T10:14:41.349Z,1.4
2022-08-03T10:16:20.566Z,1.4
2022-08-03T10:16:58.104Z,1.4
2022-08-03T10:18:06.691Z,1.7
2022-08-03T10:19:15.051Z,1.7
2022-08-03T10:20:23.435Z,1.7
2022-08-03T10:21:32.033Z,2
2022-08-03T10:22:40.391Z,2
2022-08-03T10:23:48.751Z,2
2022-08-03T10:24:57.349Z,1.8
2022-08-03T10:26:05.755Z,1.8
2022-08-03T10:27:14.161Z,1.8
2022-08-03T10:28:22.772Z,1.5
2022-08-03T10:29:31.162Z,1.5
2022-08-03T10:30:39.574Z,1.5
2022-08-03T10:31:54.647Z,1.6
2022-08-03T10:32:56.521Z,1.6
2022-08-03T10:34:04.891Z,1.6
2022-08-03T10:35:19.832Z,1.6
2022-08-03T10:36:21.894Z,1.6
2022-08-03T10:37:30.259Z,1.6
2022-08-03T10:38:38.855Z,2.4
2022-08-03T10:39:47.250Z,2.4
2022-08-03T10:40:58.731Z,2.4
2022-08-03T10:42:04.199Z,1.5
2022-08-03T10:43:12.570Z,1.5
2022-08-03T10:44:20.950Z,1.5
2022-08-03T10:45:29.542Z,1.5
2022-08-03T10:46:41.472Z,1.5
2022-08-03T10:47:46.285Z,1.5
2022-08-03T10:48:54.917Z,1.5
2022-08-03T10:50:03.250Z,1.5
2022-08-03T10:51:11.605Z,1.5
2022-08-03T10:52:32.713Z,1.4
2022-08-03T10:53:28.537Z,1.4
2022-08-03T10:54:36.952Z,1.4
2022-08-03T10:55:45.523Z,1.3
2022-08-03T10:56:54.236Z,1.3
2022-08-03T10:58:02.264Z,1.3
2022-08-03T10:59:10.840Z,1.9
2022-08-03T11:00:19.232Z,1.9
2022-08-03T11:01:27.606Z,1.9
2022-08-03T11:02:36.200Z,1.7
2022-08-03T11:03:44.566Z,1.7
2022-08-03T11:04:52.949Z,1.7
2022-08-03T11:06:01.527Z,1.8
2022-08-03T11:07:09.920Z,1.8
2022-08-03T11:08:18.292Z,1.8
2022-08-03T11:09:26.876Z,2.5
2022-08-03T11:10:35.243Z,2.5
2022-08-03T11:11:43.635Z,2.5
2022-08-03T11:12:52.197Z,4
2022-08-03T11:14:00.582Z,4
2022-08-03T11:15:09.002Z,4
2022-08-03T11:16:21.303Z,1.5
2022-08-03T11:17:25.890Z,1.5
2022-08-03T11:18:34.246Z,1.5
2022-08-03T11:19:57.172Z,1.6
2022-08-03T11:20:51.249Z,1.6
2022-08-03T11:21:59.605Z,1.6
2022-08-03T11:23:08.197Z,1.6
2022-08-03T11:24:16.593Z,1.6
2022-08-03T11:25:54.511Z,1.6
2022-08-03T11:26:33.531Z,1.4
2022-08-03T11:27:41.911Z,1.4
2022-08-03T11:28:50.291Z,1.4
2022-08-03T11:29:58.888Z,1.7
2022-08-03T11:31:07.256Z,1.7
2022-08-03T11:32:19.472Z,1.7
2022-08-03T11:33:24.225Z,1.7
2022-08-03T11:34:32.607Z,1.7
2022-08-03T11:35:40.968Z,1.7
2022-08-03T11:36:49.546Z,1.5
2022-08-03T11:38:01.713Z,1.5
2022-08-03T11:39:06.316Z,1.5
2022-08-03T11:40:14.890Z,1.7
2022-08-03T11:41:23.262Z,1.7
2022-08-03T11:42:31.645Z,1.7
2022-08-03T11:43:40.219Z,1.7
2022-08-03T11:44:48.643Z,1.7
2022-08-03T11:45:56.998Z,1.7
2022-08-03T11:47:05.603Z,1.5
2022-08-03T11:48:13.957Z,1.5
2022-08-03T11:49:22.657Z,1.5
2022-08-03T11:50:30.928Z,1.6
2022-08-03T11:51:39.287Z,1.6
2022-08-03T11:52:47.658Z,1.6
2022-08-03T11:53:56.244Z,1.5
2022-08-03T11:55:04.604Z,1.5
2022-08-03T11:56:13.239Z,1.5
2022-08-03T11:57:21.555Z,1.5
2022-08-03T11:58:57.565Z,1.5
2022-08-03T11:59:38.704Z,1.5
2022-08-03T12:00:46.884Z,1.7
2022-08-03T12:01:55.242Z,1.7
2022-08-03T12:03:03.705Z,1.7
2022-08-03T12:04:12.202Z,1.5
2022-08-03T12:05:20.735Z,1.5
2022-08-03T12:06:29.128Z,1.5
2022-08-03T12:08:02.768Z,1.5
2022-08-03T12:08:46.117Z,1.5
2022-08-03T12:09:54.511Z,1.5
2022-08-03T12:11:03.171Z,1.6
2022-08-03T12:12:11.482Z,1.6
2022-08-03T12:13:57.387Z,1.6
2022-08-03T12:14:46.178Z,1.5
2022-08-03T12:15:36.834Z,1.5
2022-08-03T12:16:45.285Z,1.5
2022-08-03T12:17:57.677Z,1.5
2022-08-03T12:19:02.222Z,1.5
2022-08-03T12:20:10.613Z,1.5
2022-08-03T12:21:19.174Z,1.7
2022-08-03T12:22:27.543Z,1.7
2022-08-03T12:23:37.779Z,1.7
2022-08-03T12:24:46.666Z,1.6
2022-08-03T12:25:52.868Z,1.6
2022-08-03T12:27:01.261Z,1.6
2022-08-03T12:28:28.515Z,1.7
2022-08-03T12:29:18.217Z,1.7
2022-08-03T12:30:26.598Z,1.7
2022-08-03T12:31:35.195Z,1.6
2022-08-03T12:32:43.563Z,1.6
2022-08-03T12:33:51.942Z,1.6
2022-08-03T12:35:00.964Z,1.5
2022-08-03T12:36:08.910Z,1.5
2022-08-03T12:37:19.147Z,1.5
2022-08-03T12:38:25.884Z,1.8
2022-08-03T12:39:34.252Z,1.8
2022-08-03T12:40:42.631Z,1.8
2022-08-03T12:41:51.225Z,1.5
2022-08-03T12:42:59.592Z,1.5
2022-08-03T12:44:07.963Z,1.5
2022-08-03T12:45:16.556Z,1.6
2022-08-03T12:46:24.902Z,1.6
2022-08-03T12:47:33.293Z,1.6
2022-08-03T12:48:41.866Z,1.8
2022-08-03T12:49:50.259Z,1.8
2022-08-03T12:50:58.615Z,1.8
2022-08-03T12:52:07.806Z,1.6
2022-08-03T12:53:15.592Z,1.6
2022-08-03T12:54:24.633Z,1.6
2022-08-03T12:55:32.552Z,2
2022-08-03T12:56:40.959Z,2
2022-08-03T12:57:49.345Z,2
2022-08-03T12:58:57.932Z,1.7
2022-08-03T13:00:06.312Z,1.7
2022-08-03T13:01:14.792Z,1.7
2022-08-03T13:02:23.533Z,1.7
2022-08-03T13:03:38.781Z,1.7
2022-08-03T13:04:40.590Z,1.7
2022-08-03T13:05:49.185Z,1.7
2022-08-03T13:07:02.415Z,1.7
2022-08-03T13:08:05.969Z,1.7
2022-08-03T13:09:14.961Z,1.8
2022-08-03T13:10:22.964Z,1.8
2022-08-03T13:11:55.994Z,1.8
2022-08-03T13:12:39.966Z,1.5
2022-08-03T13:13:48.310Z,1.5
2022-08-03T13:14:56.737Z,1.5
2022-08-03T13:16:05.355Z,1.6
2022-08-03T13:17:13.850Z,1.6
2022-08-03T13:18:22.138Z,1.6
2022-08-03T13:19:30.751Z,1.7
2022-08-03T13:20:39.158Z,1.7
2022-08-03T13:22:01.776Z,1.7
2022-08-03T13:23:00.575Z,1.7
2022-08-03T13:24:04.511Z,1.7
2022-08-03T13:25:12.887Z,1.7
2022-08-03T13:26:21.481Z,2
2022-08-03T13:28:05.053Z,2
2022-08-03T13:28:38.287Z,2
2022-08-03T13:29:46.872Z,1.8
2022-08-03T13:30:55.217Z,1.8
2022-08-03T13:32:03.616Z,1.8
2022-08-03T13:33:12.216Z,1.7
2022-08-03T13:34:23.357Z,1.7
2022-08-03T13:35:29.015Z,1.7
2022-08-03T13:36:59.371Z,2.2
2022-08-03T13:37:47.822Z,2.2
2022-08-03T13:38:54.413Z,2.2
2022-08-03T13:40:03.828Z,1.7
2022-08-03T13:41:11.409Z,1.7
2022-08-03T13:42:19.822Z,1.7
2022-08-03T13:43:28.391Z,1.7
2022-08-03T13:44:36.766Z,1.7
2022-08-03T13:45:50.343Z,1.7
2022-08-03T13:46:53.718Z,1.9
2022-08-03T13:48:02.125Z,1.9
2022-08-03T13:49:10.499Z,1.9
2022-08-03T13:50:19.078Z,1.9
2022-08-03T13:51:27.491Z,1.9
2022-08-03T13:52:35.897Z,1.9
2022-08-03T13:53:44.493Z,1.8
2022-08-03T13:54:52.960Z,1.8
2022-08-03T13:56:01.374Z,1.8
2022-08-03T13:58:01.686Z,1.7
2022-08-03T13:58:18.794Z,1.7
2022-08-03T13:59:28.093Z,1.7
2022-08-03T14:00:37.613Z,1.7
2022-08-03T14:01:55.167Z,1.7
2022-08-03T14:02:57.318Z,1.7
2022-08-03T14:04:03.024Z,1.8
2022-08-03T14:05:11.431Z,1.8
2022-08-03T14:06:19.854Z,1.8
2022-08-03T14:07:28.460Z,1.8
2022-08-03T14:08:36.870Z,1.8
2022-08-03T14:09:45.243Z,1.8
2022-08-03T14:10:53.836Z,1.7
2022-08-03T14:12:04.276Z,1.7
2022-08-03T14:13:10.644Z,1.7
2022-08-03T14:14:19.245Z,1.7
2022-08-03T14:15:27.651Z,1.7
2022-08-03T14:16:36.051Z,1.7
2022-08-03T14:17:49.793Z,1.9
2022-08-03T14:18:53.110Z,1.9
2022-08-03T14:20:02.422Z,1.9
2022-08-03T14:21:10.146Z,1.7
2022-08-03T14:22:18.533Z,1.7
2022-08-03T14:23:26.907Z,1.7
2022-08-03T14:24:35.528Z,2.1
2022-08-03T14:25:50.645Z,2.1
2022-08-03T14:26:52.345Z,2.1
2022-08-03T14:28:00.935Z,1.8
2022-08-03T14:29:09.308Z,1.8
2022-08-03T15:03:53.336Z,0
2022-08-03T15:05:01.714Z,0
2022-08-03T15:06:10.139Z,0
2022-08-03T15:07:19.006Z,2.1
2022-08-03T15:08:27.141Z,2.1
2022-08-03T15:09:35.513Z,2.1
2022-08-03T15:10:45.515Z,2
2022-08-03T15:11:52.518Z,2
2022-08-03T15:13:00.899Z,2
2022-08-03T15:14:09.745Z,2
2022-08-03T15:15:17.912Z,2
2022-08-03T15:16:30.032Z,2
2022-08-03T15:17:34.899Z,2.1
2022-08-03T15:18:43.284Z,2.1
2022-08-03T15:19:59.810Z,2.1
2022-08-03T15:21:00.258Z,1.8
2022-08-03T15:22:09.116Z,1.8
2022-08-03T15:23:17.007Z,1.8
2022-08-03T15:24:25.685Z,1.9
2022-08-03T15:26:02.628Z,1.9
2022-08-03T15:26:42.462Z,1.9
2022-08-03T15:28:03.263Z,2
2022-08-03T15:28:59.384Z,2
2022-08-03T15:30:10.215Z,2
2022-08-03T15:31:18.750Z,2.1
2022-08-03T15:32:24.807Z,2.1
2022-08-03T15:33:33.195Z,2.1
2022-08-03T15:34:41.795Z,2.1
2022-08-03T15:35:50.185Z,2.1
2022-08-03T15:36:58.597Z,2.1
2022-08-03T15:38:09.396Z,1.8
2022-08-03T15:39:15.620Z,1.8
2022-08-03T15:40:23.992Z,1.8
2022-08-03T15:41:32.600Z,2
2022-08-03T15:42:40.994Z,2
2022-08-03T15:43:49.371Z,2
2022-08-03T15:44:57.984Z,1.9
2022-08-03T15:46:28.569Z,1.9
2022-08-03T15:47:14.796Z,1.9
2022-08-03T15:48:26.406Z,1.8
2022-08-03T15:49:31.827Z,1.8
2022-08-03T15:50:40.429Z,1.8
2022-08-03T15:51:49.000Z,1.9
2022-08-03T15:52:57.385Z,1.9
2022-08-03T15:54:05.796Z,1.9
2022-08-03T15:55:15.523Z,2
2022-08-03T15:56:22.804Z,2
2022-08-03T15:57:31.180Z,2
2022-08-03T15:58:59.071Z,2
2022-08-03T15:59:48.225Z,2
2022-08-03T16:00:56.672Z,2
2022-08-03T16:02:05.272Z,1.9
2022-08-03T16:03:13.639Z,1.9
2022-08-03T16:04:22.026Z,1.9
2022-08-03T16:05:30.645Z,2
2022-08-03T16:06:39.046Z,2
2022-08-03T16:07:58.724Z,2
2022-08-03T16:08:56.017Z,2
2022-08-03T16:10:04.412Z,2
2022-08-03T16:11:12.786Z,2
2022-08-03T16:12:21.378Z,2.4
2022-08-03T16:14:04.896Z,2.4
2022-08-03T16:14:46.970Z,2.4
2022-08-03T16:15:46.808Z,1.8
2022-08-03T16:16:55.858Z,1.8
2022-08-03T16:18:04.269Z,1.8
2022-08-03T16:19:12.858Z,2.2
2022-08-03T16:20:29.122Z,2.2
2022-08-03T16:21:29.701Z,2.2
2022-08-03T16:22:38.314Z,2.2